Lisbon, Indiana
Current Conditions -  °F | °C
As of 6:55 PM on Saturday 25 Oct 2014 (Local Time) from KGWB Reporting Station
Clear Clear  
Wind Chill: 59°   Ceiling: Unl
Heat Index: 59°   Visibility: 10mi
Dew Point: 32°   Wind: 7mph
Humidity: 36%   Direction: 270°W
Pressure: 29.87"   Gusts: NA
Location:  41.4608°N, 85.2531°W
Report Text: KGWB 252255Z AUTO 27006KT 10SM CLR 15/00 A2987 RMK AO2
Loading
Personal Weather Stations






























Interactive Weather Map
Tropical Storm Tracking
New forecast layout! Learn more

10-Day Weather Forecast

Advertisements
Track Severe Weather on mobile